createdAt,value
2018-12-14T13:31:00.926Z,2.70
2018-12-14T13:36:09.083Z,2.71
2018-12-14T13:41:15.469Z,2.82
2018-12-14T13:46:20.215Z,2.77
2018-12-14T13:51:27.492Z,2.78
2018-12-14T13:56:34.368Z,2.84
2018-12-14T14:01:44.568Z,2.77
2018-12-14T14:06:58.718Z,2.72
2018-12-14T14:12:09.496Z,2.76
2018-12-14T14:17:20.608Z,2.77
2018-12-14T14:22:26.094Z,2.75
2018-12-14T14:27:31.470Z,2.72
2018-12-14T14:32:36.024Z,2.67
2018-12-14T14:37:45.756Z,2.67
2018-12-14T14:42:50.592Z,2.66
2018-12-14T14:47:57.761Z,2.69
2018-12-14T14:53:06.147Z,2.66
2018-12-14T14:58:15.361Z,2.64
2018-12-14T15:03:19.635Z,2.61
2018-12-14T15:08:25.704Z,2.57
2018-12-14T15:13:31.158Z,2.60
2018-12-14T15:18:35.700Z,2.57
2018-12-14T15:23:46.554Z,2.52
2018-12-14T15:28:52.349Z,2.45
2018-12-14T15:33:57.338Z,2.38
2018-12-14T15:39:03.360Z,2.52
2018-12-14T15:44:10.556Z,2.71
2018-12-14T15:49:16.896Z,2.66
2018-12-14T15:54:23.246Z,2.68
2018-12-14T15:59:31.508Z,2.64
2018-12-14T16:10:00.678Z,2.56
2018-12-14T16:15:08.071Z,2.60
2018-12-14T16:20:12.632Z,2.56
2018-12-14T16:25:17.039Z,2.54
2018-12-14T16:30:21.562Z,2.55
2018-12-14T16:35:26.214Z,2.49
2018-12-14T16:40:39.341Z,2.42
2018-12-14T16:45:50.676Z,2.38
2018-12-14T16:50:56.588Z,2.34
2018-12-14T16:56:00.967Z,2.38
2018-12-14T17:01:05.481Z,2.40
2018-12-14T17:06:10.605Z,2.32
2018-12-14T17:11:14.940Z,2.31
2018-12-14T17:16:19.171Z,2.25
2018-12-14T17:21:25.488Z,2.26
2018-12-14T17:26:31.643Z,2.31
2018-12-14T17:31:37.592Z,2.34
2018-12-14T17:36:44.781Z,2.35
2018-12-14T17:41:54.985Z,2.26
2018-12-14T17:47:00.005Z,2.29
2018-12-14T17:52:05.456Z,2.32
2018-12-14T17:57:12.262Z,2.30
2018-12-14T18:02:16.690Z,2.35
2018-12-14T18:07:20.983Z,2.34
2018-12-14T18:12:25.689Z,2.35
2018-12-14T18:17:30.074Z,2.31
2018-12-14T18:22:35.764Z,2.25
2018-12-14T18:27:40.446Z,2.26
2018-12-14T18:32:44.760Z,2.33
2018-12-14T18:37:49.218Z,2.28
2018-12-14T18:42:54.099Z,2.25
2018-12-14T18:47:58.419Z,2.37
2018-12-14T18:53:06.720Z,2.39
2018-12-14T18:58:11.513Z,2.40
2018-12-14T19:03:15.704Z,2.49
2018-12-14T19:08:20.392Z,2.46
2018-12-14T19:13:25.970Z,2.50
2018-12-14T19:18:34.384Z,2.52
2018-12-14T19:23:39.213Z,2.45
2018-12-14T19:28:44.024Z,2.41
2018-12-14T19:33:48.402Z,2.45
2018-12-14T19:38:52.873Z,2.54
2018-12-14T19:43:57.219Z,2.43
2018-12-14T19:49:01.410Z,2.39
2018-12-14T19:54:08.531Z,2.38
2018-12-14T19:59:15.786Z,2.38
2018-12-14T20:04:23.071Z,2.41
2018-12-14T20:09:31.655Z,2.44
2018-12-14T20:14:39.981Z,2.36
2018-12-14T20:19:53.223Z,2.41
2018-12-14T20:24:57.711Z,2.44
2018-12-14T20:30:01.964Z,2.44
2018-12-14T20:35:06.911Z,2.35
2018-12-14T20:40:11.253Z,2.33
2018-12-14T20:45:15.543Z,2.33
2018-12-14T20:50:24.260Z,2.39
2018-12-14T20:55:28.658Z,2.32
2018-12-14T21:00:33.023Z,2.29
2018-12-14T21:05:37.387Z,2.26
2018-12-14T21:11:04.793Z,2.25
2018-12-14T21:16:11.429Z,2.25
2018-12-14T21:21:19.184Z,2.23
2018-12-14T21:26:23.805Z,2.24
2018-12-14T21:31:28.365Z,2.22
2018-12-14T21:36:33.817Z,2.19
2018-12-14T21:41:38.059Z,2.14
2018-12-14T21:46:42.395Z,2.20
2018-12-14T21:51:46.839Z,2.25
2018-12-14T21:56:52.017Z,2.25
2018-12-14T22:01:57.220Z,2.27
2018-12-14T22:07:02.253Z,2.31
2018-12-14T22:12:08.827Z,2.35
2018-12-14T22:17:13.601Z,2.30
2018-12-14T22:22:17.800Z,2.29
2018-12-14T22:27:22.038Z,2.35
2018-12-14T22:32:26.349Z,2.36
2018-12-14T22:37:30.455Z,2.33
2018-12-14T22:42:34.696Z,2.30
2018-12-14T22:47:38.927Z,2.28
2018-12-14T22:52:43.199Z,2.27
2018-12-14T22:57:47.453Z,2.30
2018-12-14T23:02:51.807Z,2.29
2018-12-14T23:07:56.353Z,2.30
2018-12-14T23:13:01.468Z,2.32
2018-12-14T23:18:05.727Z,2.36
2018-12-14T23:23:10.043Z,2.32
2018-12-14T23:28:14.413Z,2.37
2018-12-14T23:33:18.745Z,2.33
2018-12-14T23:38:23.745Z,2.31
2018-12-14T23:43:28.001Z,2.27
2018-12-14T23:48:32.178Z,2.21
2018-12-14T23:53:39.526Z,2.23
2018-12-14T23:58:43.774Z,2.33
